sensor_id;sensor_type;location;lat;lon;timestamp;P1;durP1;ratioP1;P2;durP2;ratioP2
56519;SDS011;42420;53.586;10.052;2023-04-21T00:02:17;15.60;;;8.15;;
56519;SDS011;42420;53.586;10.052;2023-04-21T00:07:13;17.65;;;7.28;;
56519;SDS011;42420;53.586;10.052;2023-04-21T00:12:11;21.20;;;8.23;;
56519;SDS011;42420;53.586;10.052;2023-04-21T00:17:09;15.50;;;7.40;;
56519;SDS011;42420;53.586;10.052;2023-04-21T00:22:06;12.98;;;7.07;;
56519;SDS011;42420;53.586;10.052;2023-04-21T00:27:07;14.20;;;7.28;;
56519;SDS011;42420;53.586;10.052;2023-04-21T00:32:03;16.98;;;8.00;;
56519;SDS011;42420;53.586;10.052;2023-04-21T00:37:03;15.43;;;6.95;;
56519;SDS011;42420;53.586;10.052;2023-04-21T00:41:59;15.18;;;7.20;;
56519;SDS011;42420;53.586;10.052;2023-04-21T00:46:56;17.25;;;7.20;;
56519;SDS011;42420;53.586;10.052;2023-04-21T00:51:53;17.27;;;7.10;;
56519;SDS011;42420;53.586;10.052;2023-04-21T01:01:46;19.33;;;6.82;;
56519;SDS011;42420;53.586;10.052;2023-04-21T01:06:43;15.32;;;7.35;;
56519;SDS011;42420;53.586;10.052;2023-04-21T01:12:03;15.07;;;7.05;;
56519;SDS011;42420;53.586;10.052;2023-04-21T01:17:07;13.55;;;6.95;;
56519;SDS011;42420;53.586;10.052;2023-04-21T01:27:01;15.40;;;7.23;;
56519;SDS011;42420;53.586;10.052;2023-04-21T01:32:02;17.52;;;7.50;;
56519;SDS011;42420;53.586;10.052;2023-04-21T01:37:00;14.05;;;7.00;;
56519;SDS011;42420;53.586;10.052;2023-04-21T01:41:56;17.05;;;6.88;;
56519;SDS011;42420;53.586;10.052;2023-04-21T01:46:54;18.42;;;6.90;;
56519;SDS011;42420;53.586;10.052;2023-04-21T01:51:50;13.75;;;7.25;;
56519;SDS011;42420;53.586;10.052;2023-04-21T01:56:47;15.38;;;7.65;;
56519;SDS011;42420;53.586;10.052;2023-04-21T02:01:43;12.88;;;6.80;;
56519;SDS011;42420;53.586;10.052;2023-04-21T02:06:40;14.77;;;7.00;;
56519;SDS011;42420;53.586;10.052;2023-04-21T02:11:36;13.40;;;6.90;;
56519;SDS011;42420;53.586;10.052;2023-04-21T02:16:33;13.85;;;7.10;;
56519;SDS011;42420;53.586;10.052;2023-04-21T02:21:29;16.33;;;7.20;;
56519;SDS011;42420;53.586;10.052;2023-04-21T02:26:27;13.90;;;6.20;;
56519;SDS011;42420;53.586;10.052;2023-04-21T02:31:23;12.80;;;6.20;;
56519;SDS011;42420;53.586;10.052;2023-04-21T02:36:20;14.18;;;7.53;;
56519;SDS011;42420;53.586;10.052;2023-04-21T02:41:17;14.77;;;6.70;;
56519;SDS011;42420;53.586;10.052;2023-04-21T02:46:13;15.43;;;6.20;;
56519;SDS011;42420;53.586;10.052;2023-04-21T02:51:10;25.33;;;7.63;;
56519;SDS011;42420;53.586;10.052;2023-04-21T02:56:08;14.73;;;6.00;;
56519;SDS011;42420;53.586;10.052;2023-04-21T03:01:05;15.68;;;6.20;;
56519;SDS011;42420;53.586;10.052;2023-04-21T03:06:02;14.75;;;5.85;;
56519;SDS011;42420;53.586;10.052;2023-04-21T03:11:00;11.90;;;6.53;;
56519;SDS011;42420;53.586;10.052;2023-04-21T03:15:57;12.20;;;6.50;;
56519;SDS011;42420;53.586;10.052;2023-04-21T03:20:58;13.18;;;6.28;;
56519;SDS011;42420;53.586;10.052;2023-04-21T03:25:55;14.15;;;6.95;;
56519;SDS011;42420;53.586;10.052;2023-04-21T03:30:51;16.85;;;7.05;;
56519;SDS011;42420;53.586;10.052;2023-04-21T03:35:47;11.70;;;6.65;;
56519;SDS011;42420;53.586;10.052;2023-04-21T03:40:44;13.98;;;6.68;;
56519;SDS011;42420;53.586;10.052;2023-04-21T03:45:40;11.50;;;6.53;;
56519;SDS011;42420;53.586;10.052;2023-04-21T03:50:37;15.20;;;7.20;;
56519;SDS011;42420;53.586;10.052;2023-04-21T03:55:34;9.88;;;6.20;;
56519;SDS011;42420;53.586;10.052;2023-04-21T04:00:30;13.50;;;6.68;;
56519;SDS011;42420;53.586;10.052;2023-04-21T04:05:27;15.43;;;6.88;;
56519;SDS011;42420;53.586;10.052;2023-04-21T04:10:23;12.88;;;7.13;;
56519;SDS011;42420;53.586;10.052;2023-04-21T04:15:20;16.40;;;6.88;;
56519;SDS011;42420;53.586;10.052;2023-04-21T04:20:16;14.38;;;6.47;;
56519;SDS011;42420;53.586;10.052;2023-04-21T04:25:13;13.27;;;6.72;;
56519;SDS011;42420;53.586;10.052;2023-04-21T04:30:12;12.45;;;6.40;;
56519;SDS011;42420;53.586;10.052;2023-04-21T04:59:43;12.88;;;6.68;;
56519;SDS011;42420;53.586;10.052;2023-04-21T05:04:40;11.48;;;6.53;;
56519;SDS011;42420;53.586;10.052;2023-04-21T07:11:01;11.70;;;5.18;;
56519;SDS011;42420;53.586;10.052;2023-04-21T08:40:04;9.52;;;5.43;;
56519;SDS011;42420;53.586;10.052;2023-04-21T08:45:07;11.38;;;6.07;;
56519;SDS011;42420;53.586;10.052;2023-04-21T08:55:55;11.73;;;5.85;;
56519;SDS011;42420;53.586;10.052;2023-04-21T09:01:07;11.68;;;5.32;;
56519;SDS011;42420;53.586;10.052;2023-04-21T09:06:17;11.43;;;5.78;;
56519;SDS011;42420;53.586;10.052;2023-04-21T09:11:19;10.05;;;5.68;;
56519;SDS011;42420;53.586;10.052;2023-04-21T09:16:33;10.05;;;5.60;;
56519;SDS011;42420;53.586;10.052;2023-04-21T09:21:35;9.02;;;5.68;;
56519;SDS011;42420;53.586;10.052;2023-04-21T09:26:38;11.48;;;5.80;;
56519;SDS011;42420;53.586;10.052;2023-04-21T09:31:40;9.55;;;5.63;;
56519;SDS011;42420;53.586;10.052;2023-04-21T09:36:39;12.95;;;5.50;;
56519;SDS011;42420;53.586;10.052;2023-04-21T09:41:40;11.35;;;5.38;;
56519;SDS011;42420;53.586;10.052;2023-04-21T09:46:39;8.85;;;5.22;;
56519;SDS011;42420;53.586;10.052;2023-04-21T09:51:44;9.73;;;5.50;;
56519;SDS011;42420;53.586;10.052;2023-04-21T09:56:43;12.68;;;5.32;;
56519;SDS011;42420;53.586;10.052;2023-04-21T10:01:47;10.65;;;5.13;;
56519;SDS011;42420;53.586;10.052;2023-04-21T10:06:45;8.90;;;4.88;;
56519;SDS011;42420;53.586;10.052;2023-04-21T10:11:43;8.95;;;5.45;;
56519;SDS011;42420;53.586;10.052;2023-04-21T10:21:37;9.75;;;5.43;;
56519;SDS011;42420;53.586;10.052;2023-04-21T10:36:30;9.13;;;5.50;;
56519;SDS011;42420;53.586;10.052;2023-04-21T10:41:31;9.88;;;5.18;;
56519;SDS011;42420;53.586;10.052;2023-04-21T10:46:32;13.20;;;5.40;;
56519;SDS011;42420;53.586;10.052;2023-04-21T10:51:30;11.50;;;5.95;;
56519;SDS011;42420;53.586;10.052;2023-04-21T10:56:28;11.15;;;5.03;;
56519;SDS011;42420;53.586;10.052;2023-04-21T11:01:24;13.82;;;5.82;;
56519;SDS011;42420;53.586;10.052;2023-04-21T11:06:21;11.35;;;5.28;;
56519;SDS011;42420;53.586;10.052;2023-04-21T11:11:23;11.13;;;5.32;;
56519;SDS011;42420;53.586;10.052;2023-04-21T11:16:21;10.75;;;4.72;;
56519;SDS011;42420;53.586;10.052;2023-04-21T11:21:18;7.72;;;4.78;;
56519;SDS011;42420;53.586;10.052;2023-04-21T11:26:18;8.82;;;4.97;;
56519;SDS011;42420;53.586;10.052;2023-04-21T11:31:16;8.65;;;4.90;;
56519;SDS011;42420;53.586;10.052;2023-04-21T11:36:13;9.27;;;4.97;;
56519;SDS011;42420;53.586;10.052;2023-04-21T11:41:12;11.40;;;4.93;;
56519;SDS011;42420;53.586;10.052;2023-04-21T11:46:23;9.57;;;4.95;;
56519;SDS011;42420;53.586;10.052;2023-04-21T11:51:42;11.68;;;5.35;;
56519;SDS011;42420;53.586;10.052;2023-04-21T11:56:49;10.80;;;5.07;;
56519;SDS011;42420;53.586;10.052;2023-04-21T12:01:49;10.20;;;4.82;;
56519;SDS011;42420;53.586;10.052;2023-04-21T12:07:08;10.80;;;4.78;;
56519;SDS011;42420;53.586;10.052;2023-04-21T12:12:05;12.15;;;5.03;;
56519;SDS011;42420;53.586;10.052;2023-04-21T12:17:01;8.75;;;4.43;;
56519;SDS011;42420;53.586;10.052;2023-04-21T12:21:58;9.40;;;4.60;;
56519;SDS011;42420;53.586;10.052;2023-04-21T12:26:59;7.95;;;4.35;;
56519;SDS011;42420;53.586;10.052;2023-04-21T12:31:57;9.05;;;4.63;;
56519;SDS011;42420;53.586;10.052;2023-04-21T12:36:56;8.30;;;4.20;;
56519;SDS011;42420;53.586;10.052;2023-04-21T12:41:52;9.95;;;4.60;;
56519;SDS011;42420;53.586;10.052;2023-04-21T12:46:49;8.38;;;4.88;;
56519;SDS011;42420;53.586;10.052;2023-04-21T12:51:48;9.05;;;4.28;;
56519;SDS011;42420;53.586;10.052;2023-04-21T12:56:44;8.82;;;4.88;;
56519;SDS011;42420;53.586;10.052;2023-04-21T13:02:02;8.23;;;4.40;;
56519;SDS011;42420;53.586;10.052;2023-04-21T13:07:12;9.50;;;4.30;;
56519;SDS011;42420;53.586;10.052;2023-04-21T13:12:16;7.15;;;4.05;;
56519;SDS011;42420;53.586;10.052;2023-04-21T13:17:21;7.63;;;3.92;;
56519;SDS011;42420;53.586;10.052;2023-04-21T13:22:21;9.45;;;4.53;;
56519;SDS011;42420;53.586;10.052;2023-04-21T13:27:33;8.95;;;4.18;;
56519;SDS011;42420;53.586;10.052;2023-04-21T13:32:36;7.47;;;4.22;;
56519;SDS011;42420;53.586;10.052;2023-04-21T13:37:52;8.65;;;4.60;;
56519;SDS011;42420;53.586;10.052;2023-04-21T13:42:51;10.45;;;3.97;;
56519;SDS011;42420;53.586;10.052;2023-04-21T13:47:49;8.95;;;4.50;;
56519;SDS011;42420;53.586;10.052;2023-04-21T13:52:46;7.53;;;4.13;;
56519;SDS011;42420;53.586;10.052;2023-04-21T13:57:44;6.88;;;4.15;;
56519;SDS011;42420;53.586;10.052;2023-04-21T14:02:41;8.25;;;4.40;;
56519;SDS011;42420;53.586;10.052;2023-04-21T14:13:21;10.75;;;5.22;;
56519;SDS011;42420;53.586;10.052;2023-04-21T14:18:32;10.35;;;5.05;;
56519;SDS011;42420;53.586;10.052;2023-04-21T14:23:29;10.18;;;4.20;;
56519;SDS011;42420;53.586;10.052;2023-04-21T14:28:25;8.10;;;3.90;;
56519;SDS011;42420;53.586;10.052;2023-04-21T14:33:30;8.20;;;4.20;;
56519;SDS011;42420;53.586;10.052;2023-04-21T14:38:31;9.93;;;4.53;;
56519;SDS011;42420;53.586;10.052;2023-04-21T14:43:28;7.00;;;4.28;;
56519;SDS011;42420;53.586;10.052;2023-04-21T14:48:25;9.20;;;4.35;;
56519;SDS011;42420;53.586;10.052;2023-04-21T14:53:23;7.13;;;4.40;;
56519;SDS011;42420;53.586;10.052;2023-04-21T14:58:20;8.80;;;4.32;;
56519;SDS011;42420;53.586;10.052;2023-04-21T15:03:26;6.80;;;4.30;;
56519;SDS011;42420;53.586;10.052;2023-04-21T15:08:30;8.30;;;4.57;;
56519;SDS011;42420;53.586;10.052;2023-04-21T15:13:26;7.93;;;4.60;;
56519;SDS011;42420;53.586;10.052;2023-04-21T15:18:23;6.75;;;4.10;;
56519;SDS011;42420;53.586;10.052;2023-04-21T15:23:20;9.15;;;4.32;;
56519;SDS011;42420;53.586;10.052;2023-04-21T15:28:16;8.80;;;4.53;;
56519;SDS011;42420;53.586;10.052;2023-04-21T15:33:13;11.13;;;4.68;;
56519;SDS011;42420;53.586;10.052;2023-04-21T15:38:09;10.82;;;5.18;;
56519;SDS011;42420;53.586;10.052;2023-04-21T15:43:06;8.68;;;4.45;;
56519;SDS011;42420;53.586;10.052;2023-04-21T15:48:03;10.43;;;4.15;;
56519;SDS011;42420;53.586;10.052;2023-04-21T15:53:02;7.97;;;3.95;;
56519;SDS011;42420;53.586;10.052;2023-04-21T15:57:59;10.02;;;4.57;;
56519;SDS011;42420;53.586;10.052;2023-04-21T16:02:56;9.38;;;4.50;;
56519;SDS011;42420;53.586;10.052;2023-04-21T16:07:53;9.90;;;3.95;;
56519;SDS011;42420;53.586;10.052;2023-04-21T16:12:50;11.05;;;4.32;;
56519;SDS011;42420;53.586;10.052;2023-04-21T16:17:47;8.30;;;4.38;;
56519;SDS011;42420;53.586;10.052;2023-04-21T16:22:44;7.85;;;4.28;;
56519;SDS011;42420;53.586;10.052;2023-04-21T16:27:42;9.55;;;4.05;;
56519;SDS011;42420;53.586;10.052;2023-04-21T16:32:39;9.88;;;4.30;;
56519;SDS011;42420;53.586;10.052;2023-04-21T16:37:36;9.75;;;4.80;;
56519;SDS011;42420;53.586;10.052;2023-04-21T16:42:35;10.23;;;4.72;;
56519;SDS011;42420;53.586;10.052;2023-04-21T16:47:33;7.53;;;4.30;;
56519;SDS011;42420;53.586;10.052;2023-04-21T16:52:37;9.57;;;4.30;;
56519;SDS011;42420;53.586;10.052;2023-04-21T16:57:33;9.65;;;4.18;;
56519;SDS011;42420;53.586;10.052;2023-04-21T17:02:30;10.05;;;4.18;;
56519;SDS011;42420;53.586;10.052;2023-04-21T17:07:27;7.78;;;3.92;;
56519;SDS011;42420;53.586;10.052;2023-04-21T17:12:23;7.47;;;4.20;;
56519;SDS011;42420;53.586;10.052;2023-04-21T17:17:20;9.57;;;4.00;;
56519;SDS011;42420;53.586;10.052;2023-04-21T17:22:16;14.05;;;4.38;;
56519;SDS011;42420;53.586;10.052;2023-04-21T17:27:13;9.63;;;4.22;;
56519;SDS011;42420;53.586;10.052;2023-04-21T17:32:09;6.57;;;3.83;;
56519;SDS011;42420;53.586;10.052;2023-04-21T17:37:06;8.90;;;3.65;;
56519;SDS011;42420;53.586;10.052;2023-04-21T17:42:02;7.93;;;4.38;;
56519;SDS011;42420;53.586;10.052;2023-04-21T17:46:59;9.75;;;4.38;;
56519;SDS011;42420;53.586;10.052;2023-04-21T17:51:57;9.32;;;4.13;;
56519;SDS011;42420;53.586;10.052;2023-04-21T17:56:53;10.10;;;4.20;;
56519;SDS011;42420;53.586;10.052;2023-04-21T18:01:50;7.38;;;3.75;;
56519;SDS011;42420;53.586;10.052;2023-04-21T18:06:57;8.82;;;4.40;;
56519;SDS011;42420;53.586;10.052;2023-04-21T18:11:58;7.40;;;4.03;;
56519;SDS011;42420;53.586;10.052;2023-04-21T18:16:56;10.68;;;4.43;;
56519;SDS011;42420;53.586;10.052;2023-04-21T18:21:53;7.40;;;4.05;;
56519;SDS011;42420;53.586;10.052;2023-04-21T18:26:52;8.73;;;4.00;;
56519;SDS011;42420;53.586;10.052;2023-04-21T18:31:52;11.50;;;5.15;;
56519;SDS011;42420;53.586;10.052;2023-04-21T18:36:55;10.18;;;5.25;;
56519;SDS011;42420;53.586;10.052;2023-04-21T18:41:52;8.73;;;4.60;;
56519;SDS011;42420;53.586;10.052;2023-04-21T18:46:51;8.27;;;4.30;;
56519;SDS011;42420;53.586;10.052;2023-04-21T18:51:51;9.65;;;5.25;;
56519;SDS011;42420;53.586;10.052;2023-04-21T18:56:48;8.00;;;4.68;;
56519;SDS011;42420;53.586;10.052;2023-04-21T19:01:45;11.82;;;5.05;;
56519;SDS011;42420;53.586;10.052;2023-04-21T19:06:41;9.57;;;4.95;;
56519;SDS011;42420;53.586;10.052;2023-04-21T19:11:38;9.68;;;4.97;;
56519;SDS011;42420;53.586;10.052;2023-04-21T19:16:35;9.85;;;4.70;;
56519;SDS011;42420;53.586;10.052;2023-04-21T19:21:39;10.15;;;4.80;;
56519;SDS011;42420;53.586;10.052;2023-04-21T19:26:35;9.13;;;4.43;;
56519;SDS011;42420;53.586;10.052;2023-04-21T19:31:34;9.50;;;4.50;;
56519;SDS011;42420;53.586;10.052;2023-04-21T19:36:31;13.18;;;4.40;;
56519;SDS011;42420;53.586;10.052;2023-04-21T19:41:27;10.90;;;4.30;;
56519;SDS011;42420;53.586;10.052;2023-04-21T19:46:24;9.70;;;3.95;;
56519;SDS011;42420;53.586;10.052;2023-04-21T19:51:23;8.27;;;3.90;;
56519;SDS011;42420;53.586;10.052;2023-04-21T19:56:20;10.73;;;4.32;;
56519;SDS011;42420;53.586;10.052;2023-04-21T20:06:13;7.22;;;3.92;;
56519;SDS011;42420;53.586;10.052;2023-04-21T20:11:09;8.85;;;3.47;;
56519;SDS011;42420;53.586;10.052;2023-04-21T20:16:06;9.20;;;3.28;;
56519;SDS011;42420;53.586;10.052;2023-04-21T20:25:59;9.02;;;3.83;;
56519;SDS011;42420;53.586;10.052;2023-04-21T20:30:56;9.85;;;3.42;;
56519;SDS011;42420;53.586;10.052;2023-04-21T20:40:49;7.22;;;3.17;;
56519;SDS011;42420;53.586;10.052;2023-04-21T20:45:48;9.07;;;3.40;;
56519;SDS011;42420;53.586;10.052;2023-04-21T20:50:45;9.07;;;3.10;;
56519;SDS011;42420;53.586;10.052;2023-04-21T20:55:46;8.98;;;3.42;;
56519;SDS011;42420;53.586;10.052;2023-04-21T21:00:47;6.85;;;3.25;;
56519;SDS011;42420;53.586;10.052;2023-04-21T21:10:40;8.55;;;3.60;;
56519;SDS011;42420;53.586;10.052;2023-04-21T21:20:33;7.32;;;3.35;;
56519;SDS011;42420;53.586;10.052;2023-04-21T21:30:28;5.85;;;3.13;;
56519;SDS011;42420;53.586;10.052;2023-04-21T21:35:24;10.05;;;3.05;;
56519;SDS011;42420;53.586;10.052;2023-04-21T21:40:24;6.82;;;3.08;;
56519;SDS011;42420;53.586;10.052;2023-04-21T21:45:23;16.52;;;3.78;;
56519;SDS011;42420;53.586;10.052;2023-04-21T21:50:20;8.02;;;3.25;;
56519;SDS011;42420;53.586;10.052;2023-04-21T21:55:16;7.82;;;3.65;;
56519;SDS011;42420;53.586;10.052;2023-04-21T22:00:17;7.05;;;3.08;;
56519;SDS011;42420;53.586;10.052;2023-04-21T22:05:15;6.80;;;3.42;;
56519;SDS011;42420;53.586;10.052;2023-04-21T22:10:12;6.97;;;2.88;;
56519;SDS011;42420;53.586;10.052;2023-04-21T22:15:12;11.18;;;3.35;;
56519;SDS011;42420;53.586;10.052;2023-04-21T22:20:09;6.43;;;3.03;;
56519;SDS011;42420;53.586;10.052;2023-04-21T22:25:07;7.88;;;3.13;;
56519;SDS011;42420;53.586;10.052;2023-04-21T22:30:04;8.02;;;3.05;;
56519;SDS011;42420;53.586;10.052;2023-04-21T22:35:01;8.55;;;3.53;;
56519;SDS011;42420;53.586;10.052;2023-04-21T22:39:58;7.05;;;3.30;;
56519;SDS011;42420;53.586;10.052;2023-04-21T22:44:55;9.27;;;3.40;;
56519;SDS011;42420;53.586;10.052;2023-04-21T22:49:52;7.63;;;3.30;;
56519;SDS011;42420;53.586;10.052;2023-04-21T22:54:49;6.80;;;2.70;;
56519;SDS011;42420;53.586;10.052;2023-04-21T22:59:45;6.72;;;3.20;;
56519;SDS011;42420;53.586;10.052;2023-04-21T23:04:42;7.07;;;3.15;;
56519;SDS011;42420;53.586;10.052;2023-04-21T23:09:38;8.43;;;2.63;;
56519;SDS011;42420;53.586;10.052;2023-04-21T23:14:35;6.90;;;2.78;;
56519;SDS011;42420;53.586;10.052;2023-04-21T23:19:32;5.70;;;2.70;;
56519;SDS011;42420;53.586;10.052;2023-04-21T23:24:28;7.15;;;2.53;;
56519;SDS011;42420;53.586;10.052;2023-04-21T23:29:25;7.75;;;2.90;;
56519;SDS011;42420;53.586;10.052;2023-04-21T23:34:24;5.85;;;2.78;;
56519;SDS011;42420;53.586;10.052;2023-04-21T23:44:17;6.60;;;2.65;;
56519;SDS011;42420;53.586;10.052;2023-04-21T23:54:14;8.45;;;2.85;;
56519;SDS011;42420;53.586;10.052;2023-04-21T23:59:14;6.63;;;2.85;;
